Time;durP1;ratioP1;P1;durP2;ratioP2;P2;SDS_P1;SDS_P2;PMS_P1;PMS_P2;Temp;Humidity;BMP_temperature;BMP_pressure;BME280_temperature;BME280_humidity;BME280_pressure;Samples;Min_cycle;Max_cycle;Signal;HPM_P1;HPM_P2
2023/08/28 00:00:13;;;;;;;5.22;4.43;;;;;;;13.05;100.00;101036.44;4982836;28;20237;-76
2023/08/28 00:02:41;;;;;;;7.22;4.25;;;;;;;13.07;100.00;101044.31;4985072;28;20034;-75
2023/08/28 00:05:09;;;;;;;6.07;4.90;;;;;;;13.09;100.00;101041.59;4984833;28;20052;-75
2023/08/28 00:07:36;;;;;;;9.13;5.00;;;;;;;13.10;100.00;101049.50;4982865;28;20126;-76
2023/08/28 00:10:04;;;;;;;5.90;5.07;;;;;;;13.12;100.00;101054.72;4980447;28;20042;-76
2023/08/28 00:12:33;;;;;;;6.35;4.85;;;;;;;13.13;100.00;101054.66;4982556;28;20046;-76
2023/08/28 00:15:01;;;;;;;8.88;4.70;;;;;;;13.18;100.00;101057.13;4981871;28;20046;-76
2023/08/28 00:17:28;;;;;;;9.13;5.63;;;;;;;13.25;100.00;101056.00;4975795;28;20039;-76
2023/08/28 00:19:55;;;;;;;5.68;5.10;;;;;;;13.30;100.00;101048.72;4984354;28;20084;-76
2023/08/28 00:22:22;;;;;;;8.82;5.03;;;;;;;13.32;100.00;101052.19;4984617;28;20054;-76
2023/08/28 00:24:49;;;;;;;9.18;5.45;;;;;;;13.29;100.00;101043.50;4986918;28;20050;-76
2023/08/28 00:27:16;;;;;;;6.60;4.85;;;;;;;13.26;100.00;101044.47;4986766;28;20045;-76
2023/08/28 00:29:43;;;;;;;6.15;5.10;;;;;;;13.24;100.00;101037.50;4987557;28;20066;-76
2023/08/28 00:32:10;;;;;;;6.18;4.78;;;;;;;13.22;100.00;101031.44;4985862;28;20054;-74
2023/08/28 00:34:38;;;;;;;7.15;4.80;;;;;;;13.17;100.00;101031.59;4988568;28;20034;-75
2023/08/28 00:37:05;;;;;;;9.20;4.88;;;;;;;13.13;100.00;101022.88;4971651;28;20074;-80
2023/08/28 00:39:33;;;;;;;6.88;5.28;;;;;;;13.10;100.00;101024.78;4973971;28;20050;-81
2023/08/28 00:42:00;;;;;;;7.20;5.05;;;;;;;13.10;100.00;101038.03;4990305;28;20046;-80
2023/08/28 00:44:27;;;;;;;9.85;5.25;;;;;;;13.09;100.00;101034.53;4992892;28;20046;-81
2023/08/28 00:46:55;;;;;;;5.63;4.68;;;;;;;13.10;100.00;101025.69;4977333;28;20039;-81
2023/08/28 00:49:22;;;;;;;5.88;5.25;;;;;;;13.11;100.00;101037.09;4990264;28;20046;-81
2023/08/28 00:51:50;;;;;;;7.28;5.28;;;;;;;13.08;100.00;101031.91;4976060;28;20578;-80
2023/08/28 00:54:17;;;;;;;5.80;5.18;;;;;;;13.03;100.00;101040.91;4976592;28;20046;-80
2023/08/28 00:56:47;;;;;;;6.45;5.20;;;;;;;13.01;100.00;101029.53;4974875;28;20073;-80
2023/08/28 00:59:16;;;;;;;6.53;5.55;;;;;;;12.98;100.00;101036.72;4992127;28;20042;-81
2023/08/28 01:01:44;;;;;;;8.40;5.40;;;;;;;12.95;100.00;101031.53;4993514;28;20046;-80
2023/08/28 01:04:11;;;;;;;6.68;5.60;;;;;;;12.92;100.00;101027.22;4975572;28;20077;-79
2023/08/28 01:07:08;;;;;;;7.32;5.43;;;;;;;12.91;100.00;101016.69;4990910;28;20096;-80
2023/08/28 01:10:00;;;;;;;8.27;6.22;;;;;;;12.88;100.00;101020.31;4968492;28;20042;-79
2023/08/28 01:12:48;;;;;;;7.05;5.88;;;;;;;12.86;100.00;101025.66;4987303;28;20042;-77
2023/08/28 01:15:21;;;;;;;8.23;6.18;;;;;;;12.83;100.00;101020.47;4984979;28;20039;-77
2023/08/28 01:17:54;;;;;;;7.53;5.93;;;;;;;12.85;100.00;101023.09;4985516;28;20568;-77
2023/08/28 01:20:26;;;;;;;7.97;6.57;;;;;;;12.81;100.00;101018.81;4982827;28;20038;-77
2023/08/28 01:23:18;;;;;;;9.32;6.32;;;;;;;12.80;100.00;101023.25;4987536;28;20046;-76
2023/08/28 01:25:47;;;;;;;7.88;6.80;;;;;;;12.78;100.00;101016.28;4985707;28;20126;-77
2023/08/28 01:28:15;;;;;;;9.30;6.93;;;;;;;12.76;100.00;101010.19;4985922;28;20043;-77
2023/08/28 01:30:42;;;;;;;7.93;6.18;;;;;;;12.72;100.00;101012.94;4969241;28;20038;-77
2023/08/28 01:33:10;;;;;;;7.50;6.28;;;;;;;12.71;100.00;101008.56;4968439;28;20050;-77
2023/08/28 01:35:37;;;;;;;8.27;6.63;;;;;;;12.67;100.00;101001.66;4968134;28;20038;-77
2023/08/28 01:38:10;;;;;;;8.60;6.20;;;;;;;12.66;100.00;101005.25;4986521;28;20045;-78
2023/08/28 01:40:48;;;;;;;8.45;6.45;;;;;;;12.64;100.00;101009.72;4987263;28;20050;-74
2023/08/28 01:43:22;;;;;;;8.27;7.22;;;;;;;12.61;100.00;101011.63;4980414;28;20038;-74
2023/08/28 01:45:53;;;;;;;9.65;7.30;;;;;;;12.58;100.00;101000.22;4986601;28;20197;-75
2023/08/28 01:48:20;;;;;;;7.65;6.63;;;;;;;12.55;100.00;101000.31;4986744;28;20101;-75
2023/08/28 01:50:48;;;;;;;7.80;6.88;;;;;;;12.51;100.00;100993.44;4984886;28;21428;-75
2023/08/28 01:53:15;;;;;;;8.27;6.88;;;;;;;12.50;100.00;100996.13;4983751;28;20082;-75
2023/08/28 01:55:45;;;;;;;10.27;7.45;;;;;;;12.48;100.00;101008.53;4985183;28;20501;-75
2023/08/28 01:58:14;;;;;;;8.63;7.00;;;;;;;12.40;100.00;101014.97;4967993;28;20050;-75
2023/08/28 02:00:41;;;;;;;7.72;6.90;;;;;;;12.34;100.00;101006.38;4967860;28;20042;-75
2023/08/28 02:03:10;;;;;;;10.80;7.15;;;;;;;12.26;100.00;101004.88;4965363;28;20038;-78
2023/08/28 02:05:37;;;;;;;8.18;7.13;;;;;;;12.20;100.00;101012.16;4984644;28;20049;-77
2023/08/28 02:08:05;;;;;;;9.88;7.13;;;;;;;12.13;100.00;101010.63;4983504;28;20042;-76
2023/08/28 02:10:32;;;;;;;8.80;7.47;;;;;;;12.06;100.00;101007.34;4984703;28;20046;-76
2023/08/28 02:12:59;;;;;;;9.02;7.22;;;;;;;11.99;100.00;101003.19;4967491;28;20050;-76
2023/08/28 02:15:27;;;;;;;10.55;7.68;;;;;;;11.95;100.00;101005.88;4983100;28;20048;-76
2023/08/28 02:17:54;;;;;;;9.50;7.38;;;;;;;11.90;100.00;100997.25;4968916;28;20212;-76
2023/08/28 02:20:21;;;;;;;8.57;7.38;;;;;;;11.84;100.00;100983.38;4969593;28;20121;-76
2023/08/28 02:22:49;;;;;;;7.63;6.82;;;;;;;11.83;100.00;100981.66;4968891;28;20690;-76
2023/08/28 02:25:20;;;;;;;10.23;7.30;;;;;;;11.80;100.00;100988.75;4966683;28;20065;-76
2023/08/28 02:27:48;;;;;;;10.05;7.85;;;;;;;11.77;100.00;100986.22;4963354;28;20049;-76
2023/08/28 02:30:16;;;;;;;13.65;7.93;;;;;;;11.75;100.00;100993.31;4969665;28;20042;-80
2023/08/28 02:32:44;;;;;;;10.02;8.20;;;;;;;11.72;100.00;101004.00;4985358;28;20128;-79
2023/08/28 02:35:11;;;;;;;12.27;7.43;;;;;;;11.69;100.00;101008.53;4985971;28;20419;-80
2023/08/28 02:37:39;;;;;;;8.73;7.32;;;;;;;11.64;100.00;101009.53;4985351;28;20054;-80
2023/08/28 02:40:10;;;;;;;11.52;8.07;;;;;;;11.61;100.00;101006.13;4981485;28;20046;-79
2023/08/28 02:42:38;;;;;;;8.95;7.95;;;;;;;11.59;100.00;101007.94;4971338;28;20046;-79
2023/08/28 02:45:06;;;;;;;9.18;7.40;;;;;;;11.57;100.00;101004.47;4969102;28;20133;-79
2023/08/28 02:47:36;;;;;;;11.27;7.82;;;;;;;11.55;100.00;101006.34;4968046;28;20129;-79
2023/08/28 02:50:04;;;;;;;9.43;8.05;;;;;;;11.53;100.00;101000.22;4968663;28;20078;-79
2023/08/28 02:52:32;;;;;;;9.65;7.90;;;;;;;11.50;100.00;101001.16;4985820;28;20129;-80
2023/08/28 02:54:59;;;;;;;11.30;8.38;;;;;;;11.47;100.00;100999.50;4963601;28;20109;-79
2023/08/28 02:57:26;;;;;;;10.18;8.48;;;;;;;11.47;100.00;101007.41;4981625;28;20046;-80
2023/08/28 02:59:53;;;;;;;11.02;9.80;;;;;;;11.46;100.00;101008.31;4965688;28;20083;-80
2023/08/28 03:02:20;;;;;;;11.35;9.25;;;;;;;11.45;100.00;101009.22;4984907;28;20049;-81
2023/08/28 03:04:48;;;;;;;16.48;9.85;;;;;;;11.44;100.00;101011.94;4984075;28;20054;-79
2023/08/28 03:07:15;;;;;;;10.65;8.50;;;;;;;11.39;100.00;101009.44;4986524;28;20705;-80
2023/08/28 03:09:42;;;;;;;10.98;8.82;;;;;;;11.38;100.00;101013.00;4985634;28;20066;-79
2023/08/28 03:12:10;;;;;;;13.23;9.40;;;;;;;11.36;100.00;101011.31;4983850;28;20141;-79
2023/08/28 03:14:37;;;;;;;10.90;8.50;;;;;;;11.34;100.00;101014.00;4970185;28;20053;-79
2023/08/28 03:17:05;;;;;;;11.15;8.48;;;;;;;11.34;100.00;101014.00;4984216;28;20372;-79
2023/08/28 03:19:32;;;;;;;10.30;8.77;;;;;;;11.30;100.00;101018.50;4985566;28;20490;-78
2023/08/28 03:21:59;;;;;;;11.43;9.07;;;;;;;11.30;100.00;101012.38;4967596;28;20038;-79
2023/08/28 03:24:26;;;;;;;12.77;9.50;;;;;;;11.31;100.00;101017.59;4974491;28;20034;-79
2023/08/28 03:26:53;;;;;;;13.25;10.38;;;;;;;11.32;100.00;101019.31;4966164;28;20039;-79
2023/08/28 03:29:20;;;;;;;13.82;10.48;;;;;;;11.35;100.00;101023.63;4983570;28;20725;-79
2023/08/28 03:31:47;;;;;;;12.18;9.57;;;;;;;11.36;100.00;101019.22;4984495;28;20058;-79
2023/08/28 03:34:15;;;;;;;12.60;9.02;;;;;;;11.38;100.00;101026.19;4968573;28;20042;-79
2023/08/28 03:36:42;;;;;;;11.75;9.65;;;;;;;11.40;100.00;101029.66;4958842;28;20045;-79
2023/08/28 03:39:09;;;;;;;11.40;9.38;;;;;;;11.42;100.00;101034.88;4983300;28;20411;-78
2023/08/28 03:41:36;;;;;;;12.02;10.15;;;;;;;11.42;100.00;101037.50;4983026;28;20483;-79
2023/08/28 03:44:03;;;;;;;12.15;10.80;;;;;;;11.43;100.00;101041.88;4985804;28;20053;-78
2023/08/28 03:46:30;;;;;;;12.60;10.57;;;;;;;11.43;100.00;101042.75;4966995;28;20042;-77
2023/08/28 03:48:58;;;;;;;12.85;10.52;;;;;;;11.43;100.00;101049.81;4984424;28;20120;-79
2023/08/28 03:51:25;;;;;;;11.23;9.40;;;;;;;11.41;100.00;101049.84;4983630;28;20137;-78
2023/08/28 03:53:52;;;;;;;15.02;10.52;;;;;;;11.41;100.00;101051.63;4982593;28;20046;-79
2023/08/28 03:56:20;;;;;;;14.00;9.90;;;;;;;11.38;100.00;101060.50;4974451;28;20082;-78
2023/08/28 03:58:47;;;;;;;11.77;10.15;;;;;;;11.34;100.00;101064.16;4989252;28;20051;-77
2023/08/28 04:01:15;;;;;;;11.95;9.82;;;;;;;11.29;100.00;101073.97;4987603;28;20046;-78
2023/08/28 04:03:42;;;;;;;13.98;10.57;;;;;;;11.25;100.00;101074.97;4971580;28;20065;-78
2023/08/28 04:06:09;;;;;;;12.25;10.50;;;;;;;11.21;100.00;101075.97;4972487;28;20035;-78
2023/08/28 04:08:36;;;;;;;14.13;10.20;;;;;;;11.18;100.00;101075.16;4970274;28;20110;-79
2023/08/28 04:11:03;;;;;;;13.75;9.63;;;;;;;11.16;100.00;101074.31;4996549;28;20038;-78
2023/08/28 04:13:31;;;;;;;11.13;9.90;;;;;;;11.16;100.00;101081.41;4976380;28;21233;-79
2023/08/28 04:15:59;;;;;;;12.75;10.23;;;;;;;11.16;100.00;101089.31;4991904;28;20042;-78
2023/08/28 04:18:26;;;;;;;13.38;10.65;;;;;;;11.15;100.00;101085.78;4981488;28;20058;-78
2023/08/28 04:20:54;;;;;;;14.00;10.15;;;;;;;11.16;100.00;101076.13;4972259;28;20070;-78
2023/08/28 04:23:21;;;;;;;12.75;10.00;;;;;;;11.15;100.00;101077.88;4970002;28;20339;-78
2023/08/28 04:25:49;;;;;;;14.68;10.27;;;;;;;11.15;100.00;101084.94;4971743;28;20223;-79
2023/08/28 04:28:18;;;;;;;11.63;10.05;;;;;;;11.15;100.00;101079.66;4970589;28;20454;-80
2023/08/28 04:30:45;;;;;;;14.10;9.85;;;;;;;11.15;100.00;101075.22;4973555;28;20054;-79
2023/08/28 04:33:12;;;;;;;13.57;10.63;;;;;;;11.16;100.00;101081.41;4969001;28;20101;-78
2023/08/28 04:35:39;;;;;;;13.98;11.07;;;;;;;11.13;100.00;101079.72;4957065;28;20062;-76
2023/08/28 04:38:06;;;;;;;13.85;11.50;;;;;;;11.11;100.00;101072.72;4957663;28;20051;-76
2023/08/28 04:40:34;;;;;;;16.00;9.82;;;;;;;11.08;100.00;101075.47;4966135;28;20043;-76
2023/08/28 04:43:02;;;;;;;13.60;11.27;;;;;;;11.06;100.00;101077.28;4951798;28;20396;-77
2023/08/28 04:45:29;;;;;;;19.35;11.38;;;;;;;11.06;100.00;101079.94;4968011;28;20135;-76
2023/08/28 04:47:56;;;;;;;15.25;11.65;;;;;;;11.03;100.00;101075.59;4960126;28;20043;-76
2023/08/28 04:50:24;;;;;;;13.57;11.32;;;;;;;11.02;100.00;101072.09;4970214;28;20488;-76
2023/08/28 04:52:51;;;;;;;15.10;11.07;;;;;;;11.01;100.00;101062.44;4966868;28;20090;-77
2023/08/28 04:55:18;;;;;;;14.00;10.68;;;;;;;11.02;100.00;101058.03;4956929;28;20043;-76
2023/08/28 04:57:45;;;;;;;12.63;10.48;;;;;;;11.03;100.00;101051.88;4967684;28;20038;-75
2023/08/28 05:00:13;;;;;;;13.52;11.65;;;;;;;11.05;100.00;101042.09;4954864;28;20518;-75
2023/08/28 05:02:41;;;;;;;13.90;11.60;;;;;;;11.08;100.00;101038.53;4968152;28;20046;-75
2023/08/28 05:05:09;;;;;;;15.30;12.32;;;;;;;11.09;100.00;101042.91;4956606;28;20145;-75
2023/08/28 05:07:36;;;;;;;13.75;11.48;;;;;;;11.13;100.00;101048.06;4966147;28;20399;-76
2023/08/28 05:10:04;;;;;;;14.35;11.00;;;;;;;11.19;100.00;101045.22;4964484;28;20495;-76
2023/08/28 05:12:31;;;;;;;16.20;12.65;;;;;;;11.28;100.00;101051.13;4952606;28;20038;-76
2023/08/28 05:14:58;;;;;;;14.25;12.00;;;;;;;11.43;100.00;101052.44;4952562;28;20055;-75
2023/08/28 05:17:26;;;;;;;12.63;11.32;;;;;;;11.64;100.00;101048.28;4954084;28;20625;-76
2023/08/28 05:19:54;;;;;;;14.00;11.32;;;;;;;11.72;100.00;101046.25;4966718;28;20042;-75
2023/08/28 05:22:21;;;;;;;19.63;10.88;;;;;;;11.76;100.00;101050.50;4966394;28;20039;-75
2023/08/28 05:24:48;;;;;;;17.55;11.60;;;;;;;11.84;100.00;101057.34;4967162;28;20043;-76
2023/08/28 05:27:15;;;;;;;13.13;10.25;;;;;;;12.37;100.00;101057.34;4963100;28;20528;-76
2023/08/28 05:29:46;;;;;;;10.48;9.38;;;;;;;13.88;100.00;101043.84;4965027;28;20098;-75
2023/08/28 05:32:13;;;;;;;13.02;8.13;;;;;;;15.27;99.33;101052.91;4963789;28;20049;-76
2023/08/28 05:34:40;;;;;;;13.02;8.10;;;;;;;15.86;94.92;101059.00;4950821;28;20595;-77
2023/08/28 05:37:08;;;;;;;18.85;8.60;;;;;;;15.25;95.14;101060.06;4966414;28;20049;-77
2023/08/28 05:39:35;;;;;;;11.82;8.43;;;;;;;14.67;96.34;101049.38;4965546;28;20084;-78
2023/08/28 05:42:03;;;;;;;12.32;8.52;;;;;;;14.25;97.63;101053.78;4957907;28;20034;-78
2023/08/28 05:44:30;;;;;;;12.30;9.35;;;;;;;13.95;98.43;101051.50;4965334;28;20042;-77
2023/08/28 05:46:58;;;;;;;12.55;9.15;;;;;;;13.73;99.54;101053.28;4944240;28;20109;-77
2023/08/28 05:49:26;;;;;;;10.70;9.60;;;;;;;13.58;100.00;101052.13;4949215;28;20058;-78
2023/08/28 05:51:53;;;;;;;13.77;9.48;;;;;;;13.51;100.00;101062.09;4966020;28;20488;-78
2023/08/28 05:54:20;;;;;;;14.02;10.48;;;;;;;13.44;100.00;101056.16;4964863;28;20043;-76
2023/08/28 05:56:47;;;;;;;13.15;9.05;;;;;;;13.40;100.00;101045.75;4946214;28;20460;-76
2023/08/28 05:59:14;;;;;;;12.82;10.25;;;;;;;13.41;100.00;101050.13;4967344;28;20558;-76
2023/08/28 06:01:41;;;;;;;13.13;10.27;;;;;;;13.38;100.00;101051.09;4950186;28;20055;-76
2023/08/28 06:04:09;;;;;;;11.65;9.98;;;;;;;13.37;100.00;101057.28;4951063;28;20065;-76
2023/08/28 06:06:38;;;;;;;12.50;10.48;;;;;;;13.36;100.00;101056.44;4969480;28;20047;-75
2023/08/28 06:09:07;;;;;;;11.88;10.68;;;;;;;13.35;100.00;101052.06;4965044;28;20074;-75
2023/08/28 06:11:34;;;;;;;12.70;9.60;;;;;;;13.33;100.00;101045.09;4947937;28;20478;-75
2023/08/28 06:14:04;;;;;;;12.63;10.45;;;;;;;13.34;100.00;101047.69;4965246;28;20047;-75
2023/08/28 06:16:31;;;;;;;13.40;10.75;;;;;;;13.38;100.00;101044.94;4950009;28;20035;-76
2023/08/28 06:18:58;;;;;;;14.10;10.20;;;;;;;13.36;100.00;101037.91;4949218;28;20179;-77
2023/08/28 06:21:26;;;;;;;17.33;11.98;;;;;;;13.37;100.00;101038.75;4958146;28;20074;-76
2023/08/28 06:23:53;;;;;;;17.73;11.77;;;;;;;13.42;100.00;101039.50;4964351;28;20074;-76
2023/08/28 06:26:24;;;;;;;13.57;11.52;;;;;;;13.45;100.00;101055.25;4965440;28;20261;-77
2023/08/28 06:28:51;;;;;;;15.80;11.30;;;;;;;13.50;100.00;101068.31;4967313;28;20035;-76
2023/08/28 06:31:18;;;;;;;15.98;12.50;;;;;;;13.58;100.00;101068.00;4949044;28;20053;-76
2023/08/28 06:33:46;;;;;;;15.85;11.45;;;;;;;13.64;100.00;101073.94;4965841;28;20134;-76
2023/08/28 06:36:14;;;;;;;17.25;11.75;;;;;;;13.70;100.00;101062.22;4963726;28;20501;-75
2023/08/28 06:38:41;;;;;;;14.18;12.68;;;;;;;13.79;100.00;101063.63;4966091;28;20121;-76
2023/08/28 06:41:08;;;;;;;13.57;12.00;;;;;;;13.88;100.00;101065.94;4967047;28;20031;-77
2023/08/28 06:43:35;;;;;;;14.18;11.95;;;;;;;13.98;100.00;101064.63;4964912;28;20166;-76
2023/08/28 06:46:03;;;;;;;15.68;11.98;;;;;;;14.09;100.00;101065.97;4966865;28;20054;-77
2023/08/28 06:48:30;;;;;;;13.82;11.60;;;;;;;14.13;100.00;101065.78;4967162;28;20551;-77
2023/08/28 06:50:57;;;;;;;15.88;11.68;;;;;;;14.24;100.00;101073.28;4967362;28;20093;-76
2023/08/28 06:53:25;;;;;;;16.35;11.55;;;;;;;14.24;100.00;101075.09;4967203;28;20051;-76
2023/08/28 06:55:52;;;;;;;16.48;12.15;;;;;;;14.27;100.00;101083.78;4966725;28;20046;-77
2023/08/28 06:58:20;;;;;;;14.98;12.20;;;;;;;14.32;100.00;101078.28;4966157;28;20046;-76
2023/08/28 07:00:47;;;;;;;14.40;11.30;;;;;;;14.45;100.00;101075.94;4965640;28;20504;-76
2023/08/28 07:03:14;;;;;;;12.48;10.65;;;;;;;14.57;100.00;101078.09;4966307;28;20073;-76
2023/08/28 07:05:41;;;;;;;13.50;11.38;;;;;;;14.69;100.00;101081.16;4965877;28;20504;-77
2023/08/28 07:08:08;;;;;;;11.93;9.98;;;;;;;14.84;100.00;101082.28;4960891;28;20034;-77
2023/08/28 07:10:35;;;;;;;15.35;11.63;;;;;;;14.97;100.00;101078.13;4964865;28;20137;-77
2023/08/28 07:13:03;;;;;;;12.95;10.60;;;;;;;15.10;100.00;101080.22;4964876;28;20105;-77
2023/08/28 07:15:30;;;;;;;11.23;9.95;;;;;;;15.17;100.00;101079.00;4966747;28;20050;-76
2023/08/28 07:17:57;;;;;;;13.73;9.68;;;;;;;15.27;100.00;101080.31;4965985;28;20488;-75
2023/08/28 07:20:25;;;;;;;15.43;10.73;;;;;;;15.37;100.00;101075.44;4964574;28;20515;-77
2023/08/28 07:22:55;;;;;;;9.15;8.10;;;;;;;15.47;100.00;101075.88;4962881;28;20043;-76
2023/08/28 07:25:22;;;;;;;15.52;10.88;;;;;;;15.58;100.00;101084.19;4961298;28;20066;-76
2023/08/28 07:27:51;;;;;;;12.48;10.05;;;;;;;15.68;99.92;101082.81;4964833;28;20050;-76
2023/08/28 07:30:18;;;;;;;10.43;8.45;;;;;;;15.78;99.35;101079.72;4967355;28;20043;-76
2023/08/28 07:32:46;;;;;;;14.45;9.68;;;;;;;15.88;98.93;101075.69;4966493;28;20039;-77
2023/08/28 07:35:13;;;;;;;9.15;8.25;;;;;;;15.98;98.45;101079.63;4965857;28;20053;-77
2023/08/28 07:37:40;;;;;;;9.95;8.68;;;;;;;16.08;97.63;101077.41;4965944;28;20599;-76
2023/08/28 07:40:09;;;;;;;10.80;9.27;;;;;;;16.15;97.58;101080.63;4966559;28;20050;-77
2023/08/28 07:42:36;;;;;;;10.55;8.65;;;;;;;16.23;97.93;101077.53;4964636;28;20172;-77
2023/08/28 07:45:04;;;;;;;12.73;8.40;;;;;;;16.33;97.61;101081.47;4966237;28;20039;-77
2023/08/28 07:47:31;;;;;;;9.88;8.00;;;;;;;16.43;97.08;101082.72;4965286;28;20070;-77
2023/08/28 07:49:58;;;;;;;11.98;7.85;;;;;;;16.55;96.86;101085.69;4964046;28;20042;-77
2023/08/28 07:52:25;;;;;;;11.57;8.52;;;;;;;16.65;96.40;101094.91;4965571;28;20078;-77
2023/08/28 07:54:53;;;;;;;10.23;7.85;;;;;;;16.75;96.12;101088.19;4958353;28;20281;-77
2023/08/28 07:57:23;;;;;;;8.70;7.88;;;;;;;16.88;95.20;101091.06;4965292;28;20105;-76
2023/08/28 07:59:50;;;;;;;8.85;7.88;;;;;;;16.92;94.75;101089.09;4964783;28;20051;-77
2023/08/28 08:02:17;;;;;;;10.05;7.68;;;;;;;16.96;94.02;101087.16;4966151;28;20047;-76
2023/08/28 08:04:44;;;;;;;8.40;7.47;;;;;;;16.97;94.01;101087.06;4967969;28;20557;-77
2023/08/28 08:07:11;;;;;;;11.60;7.88;;;;;;;17.06;94.17;101081.25;4965439;28;20102;-77
2023/08/28 08:09:38;;;;;;;8.80;6.63;;;;;;;17.19;93.65;101092.13;4965576;28;20105;-76
2023/08/28 08:12:06;;;;;;;8.10;7.00;;;;;;;17.28;93.64;101085.41;4965710;28;20137;-76
2023/08/28 08:14:33;;;;;;;8.57;7.60;;;;;;;17.41;93.02;101084.75;4966137;28;20042;-76
2023/08/28 08:17:00;;;;;;;8.13;6.90;;;;;;;17.49;92.42;101090.50;4965313;28;20128;-77
2023/08/28 08:19:27;;;;;;;15.52;6.15;;;;;;;17.59;91.70;101077.53;4964408;28;20570;-77
2023/08/28 08:21:54;;;;;;;7.30;5.50;;;;;;;17.65;91.12;101080.69;4963033;28;20049;-74
2023/08/28 08:24:22;;;;;;;7.65;6.13;;;;;;;17.79;91.06;101093.28;4958904;28;20044;-74
2023/08/28 08:26:49;;;;;;;7.10;5.57;;;;;;;17.96;90.61;101091.44;4962047;28;20262;-75
2023/08/28 08:29:16;;;;;;;10.02;6.03;;;;;;;18.15;89.76;101089.47;4963002;28;20125;-74
2023/08/28 08:31:43;;;;;;;6.55;4.55;;;;;;;18.31;88.70;101084.09;4962437;28;20125;-74
2023/08/28 08:34:10;;;;;;;10.35;5.57;;;;;;;18.40;88.91;101084.47;4964016;28;20117;-74
2023/08/28 08:36:39;;;;;;;10.15;4.88;;;;;;;18.62;88.79;101090.25;4965142;28;20543;-73
2023/08/28 08:39:06;;;;;;;8.05;5.05;;;;;;;18.63;88.99;101093.78;4956919;28;20129;-73
2023/08/28 08:41:33;;;;;;;11.70;5.70;;;;;;;18.71;88.09;101086.19;4964717;28;20053;-74
2023/08/28 08:44:00;;;;;;;7.05;4.82;;;;;;;18.71;87.43;101093.31;4943557;28;20106;-74
2023/08/28 08:46:28;;;;;;;7.45;5.25;;;;;;;18.77;87.79;101099.16;4971589;28;20050;-74
2023/08/28 08:49:00;;;;;;;5.20;4.18;;;;;;;18.80;87.19;101099.91;4965909;28;20046;-74
2023/08/28 08:51:31;;;;;;;6.00;4.97;;;;;;;18.79;86.48;101104.38;4965318;28;20047;-74
2023/08/28 08:54:26;;;;;;;11.10;5.25;;;;;;;18.83;85.46;101097.91;4965842;28;20388;-74
2023/08/28 08:57:02;;;;;;;9.93;5.45;;;;;;;18.98;85.16;101100.63;4968866;28;20101;-74
2023/08/28 08:59:29;;;;;;;5.40;3.85;;;;;;;19.11;84.24;101098.91;4964730;28;20146;-74
2023/08/28 09:02:00;;;;;;;5.97;4.22;;;;;;;19.32;84.21;101098.50;4966943;28;20047;-74
2023/08/28 09:04:27;;;;;;;5.03;4.40;;;;;;;19.53;83.20;101086.47;4967544;28;20059;-73
2023/08/28 09:06:58;;;;;;;17.98;4.80;;;;;;;19.68;81.74;101092.63;4964500;28;20142;-74
2023/08/28 09:09:25;;;;;;;6.18;3.90;;;;;;;19.85;81.21;101079.97;4963601;28;20054;-74
2023/08/28 09:11:53;;;;;;;5.65;3.97;;;;;;;19.85;78.94;101083.53;4966621;28;20160;-74
2023/08/28 09:14:20;;;;;;;4.57;3.40;;;;;;;19.86;78.69;101084.38;4966713;28;20047;-74
2023/08/28 09:16:47;;;;;;;7.13;3.65;;;;;;;20.00;78.79;101078.13;4967830;28;20045;-75
2023/08/28 09:19:15;;;;;;;5.68;3.10;;;;;;;20.08;77.78;101073.13;4965325;28;20149;-75
2023/08/28 09:21:47;;;;;;;3.80;3.40;;;;;;;20.09;77.22;101080.22;4963774;28;20039;-74
2023/08/28 09:24:20;;;;;;;9.68;3.58;;;;;;;20.08;78.30;101072.25;4963843;28;20137;-74
2023/08/28 09:26:53;;;;;;;6.13;3.88;;;;;;;20.09;78.63;101074.84;4967431;28;20217;-74
2023/08/28 09:29:24;;;;;;;4.88;4.35;;;;;;;20.06;75.88;101080.41;4963567;28;20047;-74
2023/08/28 09:32:03;;;;;;;7.43;4.30;;;;;;;19.96;75.71;101076.63;4964265;28;20066;-74
2023/08/28 09:34:39;;;;;;;9.02;4.90;;;;;;;19.95;75.62;101073.06;4965512;28;20055;-74
2023/08/28 09:37:12;;;;;;;5.45;4.70;;;;;;;20.09;75.16;101074.84;4963498;28;20097;-74
2023/08/28 09:39:41;;;;;;;4.20;3.80;;;;;;;20.17;74.68;101079.66;4959448;28;20061;-74
2023/08/28 09:42:09;;;;;;;4.78;3.88;;;;;;;20.21;74.58;101072.28;4965768;28;20720;-74
2023/08/28 09:44:37;;;;;;;6.28;4.53;;;;;;;20.21;74.20;101073.16;4964414;28;20054;-74
2023/08/28 09:47:05;;;;;;;4.35;3.85;;;;;;;20.13;74.41;101080.84;4966586;28;20046;-74
2023/08/28 09:49:42;;;;;;;4.80;3.90;;;;;;;20.22;74.10;101074.00;4965606;28;20049;-74
2023/08/28 09:52:11;;;;;;;8.95;3.70;;;;;;;20.36;74.98;101079.28;4964897;28;20091;-74
2023/08/28 09:54:38;;;;;;;8.82;3.90;;;;;;;20.58;75.94;101078.66;4966487;28;20046;-73
2023/08/28 09:57:16;;;;;;;4.97;3.45;;;;;;;20.93;75.37;101085.25;4966863;28;20479;-74
2023/08/28 09:59:43;;;;;;;3.90;2.25;;;;;;;21.25;73.87;101082.09;4964491;28;20042;-74
2023/08/28 10:02:20;;;;;;;2.15;1.80;;;;;;;21.56;69.15;101088.81;4965370;28;20523;-75
2023/08/28 10:04:52;;;;;;;3.55;1.60;;;;;;;21.63;67.79;101075.81;4965206;28;20455;-74
2023/08/28 10:07:24;;;;;;;6.18;2.00;;;;;;;21.73;69.16;101078.69;4966288;28;20094;-74
2023/08/28 10:09:53;;;;;;;3.38;2.10;;;;;;;21.80;69.77;101071.03;4964572;28;20047;-74
2023/08/28 10:12:22;;;;;;;2.67;1.20;;;;;;;21.79;68.42;101083.56;4965880;28;20046;-76
2023/08/28 10:14:53;;;;;;;1.20;1.10;;;;;;;21.70;66.06;101076.22;4967122;28;20035;-74
2023/08/28 10:17:27;;;;;;;3.08;1.00;;;;;;;21.59;68.16;101081.50;4965799;28;20995;-74
2023/08/28 10:20:00;;;;;;;2.78;1.27;;;;;;;21.48;67.16;101082.28;4969736;28;20471;-74
2023/08/28 10:22:30;;;;;;;4.53;1.30;;;;;;;21.33;66.32;101085.09;4964901;28;20451;-74
2023/08/28 10:24:59;;;;;;;3.83;1.02;;;;;;;21.15;67.93;101081.91;4964195;28;20058;-74
2023/08/28 10:27:27;;;;;;;2.72;0.75;;;;;;;20.99;68.93;101082.16;4966751;28;20039;-74
2023/08/28 10:29:57;;;;;;;7.28;1.30;;;;;;;20.87;69.02;101088.38;4966039;28;20423;-74
2023/08/28 10:32:26;;;;;;;13.57;2.17;;;;;;;20.77;66.63;101080.97;4969433;28;20049;-74
2023/08/28 10:34:56;;;;;;;16.92;1.58;;;;;;;20.63;67.29;101081.03;4963662;28;20047;-73
2023/08/28 10:37:23;;;;;;;5.30;0.90;;;;;;;20.54;68.08;101076.31;4964794;28;20110;-74
2023/08/28 10:40:01;;;;;;;0.90;0.73;;;;;;;20.51;68.41;101084.53;4961752;28;20480;-73
2023/08/28 10:42:31;;;;;;;3.97;1.00;;;;;;;20.48;69.02;101078.47;4949770;28;20410;-74
2023/08/28 10:44:59;;;;;;;4.78;1.00;;;;;;;20.54;68.97;101076.31;4963214;28;20050;-73
2023/08/28 10:47:29;;;;;;;4.28;1.15;;;;;;;20.87;68.93;101067.78;4964485;28;20046;-73
2023/08/28 10:49:56;;;;;;;2.35;1.23;;;;;;;21.23;68.59;101062.59;4963920;28;20049;-74
2023/08/28 10:52:23;;;;;;;2.90;1.60;;;;;;;21.47;67.18;101064.47;4964946;28;20504;-73
2023/08/28 10:54:54;;;;;;;5.32;1.88;;;;;;;21.62;66.83;101057.16;4965543;28;20046;-73
2023/08/28 10:57:28;;;;;;;3.15;1.48;;;;;;;21.91;66.44;101065.72;4965254;28;20061;-73
2023/08/28 11:00:14;;;;;;;4.10;1.55;;;;;;;22.24;64.42;101063.28;4961504;28;20046;-74
2023/08/28 11:03:09;;;;;;;3.55;1.95;;;;;;;22.40;63.61;101062.97;4963810;28;20039;-74
2023/08/28 11:05:40;;;;;;;6.22;1.50;;;;;;;22.33;65.03;101059.88;4963830;28;20065;-73
2023/08/28 11:08:11;;;;;;;8.45;1.80;;;;;;;22.19;65.58;101066.31;4962674;28;20455;-72
2023/08/28 11:10:49;;;;;;;5.97;1.50;;;;;;;22.03;65.29;101061.25;4965201;28;20042;-72
2023/08/28 11:13:22;;;;;;;3.65;1.30;;;;;;;21.93;64.35;101058.41;4960001;28;20041;-72
2023/08/28 11:16:02;;;;;;;2.35;1.50;;;;;;;21.85;64.84;101052.75;4960646;28;20513;-73
2023/08/28 11:18:31;;;;;;;10.38;1.83;;;;;;;21.76;65.80;101056.13;4962681;28;20118;-73
2023/08/28 11:21:01;;;;;;;4.13;1.60;;;;;;;21.68;64.93;101046.81;4961557;28;21998;-72